createdAt,value
2022-09-25T00:00:29.384Z,96753.00
2022-09-25T00:05:30.173Z,96748.00
2022-09-25T00:10:32.439Z,96752.00
2022-09-25T00:15:33.240Z,96754.00
2022-09-25T00:20:36.527Z,96759.00
2022-09-25T00:25:37.328Z,96759.00
2022-09-25T00:30:39.854Z,96746.00
2022-09-25T00:35:40.653Z,96743.00
2022-09-25T00:40:41.492Z,96743.00
2022-09-25T00:45:43.439Z,96737.00
2022-09-25T00:50:51.687Z,96741.00
2022-09-25T00:55:54.198Z,96742.00
2022-09-25T01:00:55.194Z,96741.00
2022-09-25T01:05:59.522Z,96735.00
2022-09-25T01:11:00.781Z,96727.00
2022-09-25T01:16:26.431Z,96734.00
2022-09-25T01:21:41.954Z,96731.00
2022-09-25T01:30:03.295Z,96724.00
2022-09-25T01:35:12.769Z,96732.00
2022-09-25T01:40:34.703Z,96734.00
2022-09-25T01:45:48.661Z,96724.00
2022-09-25T01:51:03.539Z,96724.00
2022-09-25T01:56:13.583Z,96715.00
2022-09-25T02:01:22.407Z,96708.00
2022-09-25T02:06:24.757Z,96709.00
2022-09-25T02:11:30.994Z,96709.00
2022-09-25T02:16:37.892Z,96707.00
2022-09-25T02:21:48.714Z,96710.00
2022-09-25T02:26:50.218Z,96699.00
2022-09-25T02:31:57.136Z,96708.00
2022-09-25T02:36:58.701Z,96707.00
2022-09-25T02:45:11.003Z,96708.00
2022-09-25T02:50:27.565Z,96701.00
2022-09-25T02:57:04.454Z,96702.00
2022-09-25T03:02:05.958Z,96698.00
2022-09-25T03:07:07.429Z,96710.00
2022-09-25T03:12:08.206Z,96705.00
2022-09-25T03:17:10.845Z,96709.00
2022-09-25T03:22:15.393Z,96711.00
2022-09-25T03:27:16.820Z,96718.00
2022-09-25T03:32:17.677Z,96704.00
2022-09-25T03:37:18.461Z,96707.00
2022-09-25T03:42:19.260Z,96706.00
2022-09-25T03:47:20.067Z,96708.00
2022-09-25T03:52:21.172Z,96706.00
2022-09-25T03:57:22.181Z,96700.00
2022-09-25T04:02:23.053Z,96704.00
2022-09-25T04:07:24.308Z,96705.00
2022-09-25T04:12:25.664Z,96703.00
2022-09-25T04:17:28.921Z,96706.00
2022-09-25T04:22:29.790Z,96701.00
2022-09-25T04:27:31.606Z,96699.00
2022-09-25T04:32:51.144Z,96700.00
2022-09-25T04:37:51.880Z,96707.00
2022-09-25T04:42:57.265Z,96700.00
2022-09-25T04:47:59.660Z,96705.00
2022-09-25T04:53:00.930Z,96711.00
2022-09-25T04:58:01.743Z,96713.00
2022-09-25T05:03:03.789Z,96710.00
2022-09-25T05:08:04.667Z,96712.00
2022-09-25T05:13:05.440Z,96713.00
2022-09-25T05:18:17.724Z,96715.00
2022-09-25T05:23:18.599Z,96711.00
2022-09-25T05:28:19.475Z,96715.00
2022-09-25T05:33:20.502Z,96711.00
2022-09-25T05:38:21.263Z,96710.00
2022-09-25T05:43:22.145Z,96721.00
2022-09-25T05:48:22.984Z,96719.00
2022-09-25T05:53:24.305Z,96720.00
2022-09-25T05:58:27.119Z,96731.00
2022-09-25T06:03:28.816Z,96726.00
2022-09-25T06:08:34.722Z,96736.00
2022-09-25T06:13:36.171Z,96731.00
2022-09-25T06:18:36.923Z,96724.00
2022-09-25T06:23:37.819Z,96728.00
2022-09-25T06:28:38.914Z,96726.00
2022-09-25T06:33:41.208Z,96739.00
2022-09-25T06:38:41.927Z,96734.00
2022-09-25T06:43:42.695Z,96739.00
2022-09-25T06:48:44.121Z,96738.00
2022-09-25T06:53:45.188Z,96741.00
2022-09-25T06:58:46.860Z,96732.00
2022-09-25T07:03:49.353Z,96746.00
2022-09-25T07:08:51.349Z,96745.00
2022-09-25T07:13:54.260Z,96744.00
2022-09-25T07:19:00.229Z,96749.00
2022-09-25T07:24:01.297Z,96745.00
2022-09-25T07:29:05.668Z,96750.00
2022-09-25T07:34:11.835Z,96747.00
2022-09-25T07:39:17.682Z,96747.00
2022-09-25T07:44:38.372Z,96751.00
2022-09-25T07:49:39.518Z,96757.00
2022-09-25T07:54:40.295Z,96755.00
2022-09-25T07:59:41.106Z,96761.00
2022-09-25T08:04:43.202Z,96764.00
2022-09-25T08:09:43.938Z,96763.00
2022-09-25T08:14:44.714Z,96764.00
2022-09-25T08:19:45.698Z,96761.00
2022-09-25T08:24:47.896Z,96762.00
2022-09-25T08:29:48.696Z,96760.00
2022-09-25T08:34:49.965Z,96774.00
2022-09-25T08:39:50.770Z,96768.00
2022-09-25T08:49:01.327Z,96772.00
2022-09-25T08:54:03.457Z,96775.00
2022-09-25T08:59:30.083Z,96776.00
2022-09-25T09:04:36.273Z,96763.00
2022-09-25T09:10:06.398Z,96766.00
2022-09-25T09:18:04.693Z,96769.00
2022-09-25T09:23:12.170Z,96770.00
2022-09-25T09:29:14.592Z,96773.00
2022-09-25T09:35:07.121Z,96775.00
2022-09-25T09:40:46.264Z,96782.00
2022-09-25T09:46:43.925Z,96774.00
2022-09-25T09:52:01.332Z,96781.00
2022-09-25T09:57:54.216Z,96779.00
2022-09-25T10:09:43.776Z,96775.00
2022-09-25T10:14:47.039Z,96775.00
2022-09-25T10:19:55.488Z,96776.00
2022-09-25T10:25:04.434Z,96771.00
2022-09-25T10:30:23.613Z,96768.00
2022-09-25T10:35:45.152Z,96765.00
2022-09-25T10:40:58.659Z,96777.00
2022-09-25T10:46:13.196Z,96775.00
2022-09-25T10:51:17.468Z,96776.00
2022-09-25T10:56:32.255Z,96778.00
2022-09-25T11:01:39.842Z,96779.00
2022-09-25T11:06:51.603Z,96784.00
2022-09-25T11:12:05.611Z,96783.00
2022-09-25T11:17:32.657Z,96790.00
2022-09-25T11:22:36.753Z,96803.00
2022-09-25T11:28:05.264Z,96801.00
2022-09-25T11:33:21.357Z,96800.00
2022-09-25T11:41:15.645Z,96791.00
2022-09-25T11:46:27.790Z,96791.00
2022-09-25T11:51:57.379Z,96794.00
2022-09-25T11:57:09.578Z,96783.00
2022-09-25T12:03:06.987Z,96792.00
2022-09-25T12:08:27.737Z,96794.00
2022-09-25T12:14:14.231Z,96784.00
2022-09-25T12:19:27.535Z,96786.00
2022-09-25T12:27:06.197Z,96796.00
2022-09-25T12:34:10.970Z,96789.00
2022-09-25T12:40:48.560Z,96795.00
2022-09-25T12:45:57.931Z,96785.00
2022-09-25T12:51:16.638Z,96789.00
2022-09-25T12:56:36.703Z,96779.00
2022-09-25T13:02:01.578Z,96784.00
2022-09-25T13:07:23.163Z,96783.00
2022-09-25T13:12:34.783Z,96789.00
2022-09-25T13:17:37.426Z,96798.00
2022-09-25T13:22:41.245Z,96793.00
2022-09-25T13:27:45.603Z,96783.00
2022-09-25T13:32:52.184Z,96778.00
2022-09-25T13:37:56.518Z,96775.00
2022-09-25T13:43:23.649Z,96783.00
2022-09-25T13:48:43.197Z,96773.00
2022-09-25T13:54:02.969Z,96771.00
2022-09-25T13:59:21.044Z,96761.00
2022-09-25T14:04:35.513Z,96772.00
2022-09-25T14:09:43.089Z,96764.00
2022-09-25T14:14:54.744Z,96770.00
2022-09-25T14:19:58.434Z,96765.00
2022-09-25T14:25:01.266Z,96766.00
2022-09-25T14:30:10.418Z,96769.00
2022-09-25T14:35:38.767Z,96766.00
2022-09-25T14:40:56.607Z,96769.00
2022-09-25T14:46:19.234Z,96768.00
2022-09-25T14:51:56.623Z,96766.00
2022-09-25T14:56:58.607Z,96763.00
2022-09-25T15:02:02.366Z,96766.00
2022-09-25T15:07:25.210Z,96765.00
2022-09-25T15:12:33.084Z,96765.00
2022-09-25T15:17:43.378Z,96759.00
2022-09-25T15:22:52.126Z,96762.00
2022-09-25T15:27:53.016Z,96757.00
2022-09-25T15:33:00.547Z,96755.00
2022-09-25T15:38:12.308Z,96767.00
2022-09-25T15:43:15.499Z,96755.00
2022-09-25T15:48:31.852Z,96748.00
2022-09-25T15:53:43.069Z,96745.00
2022-09-25T15:58:51.368Z,96741.00
2022-09-25T16:04:11.611Z,96732.00
2022-09-25T16:09:29.672Z,96739.00
2022-09-25T16:14:30.731Z,96738.00
2022-09-25T16:19:33.440Z,96736.00
2022-09-25T16:24:34.640Z,96737.00
2022-09-25T16:29:39.911Z,96737.00
2022-09-25T16:34:48.720Z,96726.00
2022-09-25T16:40:15.690Z,96732.00
2022-09-25T16:45:27.303Z,96732.00
2022-09-25T16:50:32.586Z,96728.00
2022-09-25T16:55:37.429Z,96735.00
2022-09-25T17:00:38.228Z,96735.00
2022-09-25T17:05:39.338Z,96728.00
2022-09-25T17:10:40.547Z,96723.00
2022-09-25T17:15:42.172Z,96722.00
2022-09-25T17:20:43.091Z,96724.00
2022-09-25T17:25:48.929Z,96728.00
2022-09-25T17:30:49.710Z,96725.00
2022-09-25T17:36:02.627Z,96727.00
2022-09-25T17:41:21.155Z,96742.00
2022-09-25T17:46:22.731Z,96741.00
2022-09-25T17:51:28.522Z,96751.00
2022-09-25T17:56:31.033Z,96756.00
2022-09-25T18:01:38.363Z,96753.00
2022-09-25T18:06:42.701Z,96754.00
2022-09-25T18:11:44.065Z,96759.00
2022-09-25T18:16:45.160Z,96760.00
2022-09-25T18:22:04.617Z,96769.00
2022-09-25T18:27:05.672Z,96765.00
2022-09-25T18:32:07.277Z,96767.00
2022-09-25T18:37:08.680Z,96769.00
2022-09-25T18:42:09.517Z,96770.00
2022-09-25T18:47:10.924Z,96763.00
2022-09-25T18:52:12.071Z,96766.00
2022-09-25T18:57:13.399Z,96764.00
2022-09-25T19:02:26.031Z,96764.00
2022-09-25T19:07:28.559Z,96771.00
2022-09-25T19:12:30.487Z,96768.00
2022-09-25T19:17:31.558Z,96769.00
2022-09-25T19:22:32.786Z,96771.00
2022-09-25T19:27:33.551Z,96768.00
2022-09-25T19:32:34.324Z,96768.00
2022-09-25T19:37:35.203Z,96770.00
2022-09-25T19:42:36.679Z,96765.00
2022-09-25T19:47:37.451Z,96769.00
2022-09-25T19:52:38.388Z,96780.00
2022-09-25T19:57:39.144Z,96780.00
2022-09-25T20:02:44.181Z,96784.00
2022-09-25T20:07:45.280Z,96775.00
2022-09-25T20:12:46.083Z,96775.00
2022-09-25T20:17:47.641Z,96772.00
2022-09-25T20:22:48.409Z,96768.00
2022-09-25T20:27:50.296Z,96766.00
2022-09-25T20:32:51.726Z,96753.00
2022-09-25T20:37:52.701Z,96752.00
2022-09-25T20:42:53.485Z,96758.00
2022-09-25T20:47:54.420Z,96749.00
2022-09-25T20:52:56.536Z,96756.00
2022-09-25T20:57:57.829Z,96757.00
2022-09-25T21:02:59.325Z,96756.00
2022-09-25T21:08:01.403Z,96756.00
2022-09-25T21:13:04.535Z,96736.00
2022-09-25T21:18:05.609Z,96738.00
2022-09-25T21:23:06.393Z,96734.00
2022-09-25T21:28:07.156Z,96733.00
2022-09-25T21:33:07.974Z,96728.00
2022-09-25T21:38:09.058Z,96721.00
2022-09-25T21:43:10.747Z,96726.00
2022-09-25T21:48:11.727Z,96722.00
2022-09-25T21:53:12.662Z,96723.00
2022-09-25T21:58:13.853Z,96716.00
2022-09-25T22:03:14.705Z,96708.00
2022-09-25T22:08:15.605Z,96718.00
2022-09-25T22:13:16.349Z,96717.00
2022-09-25T22:18:17.108Z,96713.00
2022-09-25T22:23:19.707Z,96717.00
2022-09-25T22:28:20.703Z,96707.00
2022-09-25T22:33:21.494Z,96707.00
2022-09-25T22:38:22.355Z,96706.00
2022-09-25T22:43:23.189Z,96700.00
2022-09-25T22:48:23.941Z,96695.00
2022-09-25T22:53:25.933Z,96691.00
2022-09-25T22:58:26.778Z,96685.00
2022-09-25T23:03:28.280Z,96688.00
2022-09-25T23:08:30.494Z,96685.00
2022-09-25T23:13:31.833Z,96679.00
2022-09-25T23:18:36.224Z,96680.00
2022-09-25T23:23:37.238Z,96673.00
2022-09-25T23:28:39.669Z,96668.00
2022-09-25T23:33:42.002Z,96662.00
2022-09-25T23:38:43.600Z,96650.00
2022-09-25T23:43:45.831Z,96641.00
2022-09-25T23:48:47.242Z,96648.00
2022-09-25T23:53:49.179Z,96642.00
2022-09-25T23:58:50.770Z,96648.00
